»·PEaware :: AAL1228 KABQ-KPHX

AAL1228 :: KABQ-KPHX

FLIGHT INFORMATION

Flight Status: Arrived
Operator:
American Airlines
More flights by this operator :: More flights under this callsign
Pilot: Michael M. (12217)
Aircraft: BOEING 737-800
(B738)
More flights by this aircraft type
Origin: KABQ Albuquerque Intl Sunport
United States
Destination: KPHX Phoenix Sky Harbor Intl
United States
More flights between these airports :: More routes between these airports
Route: RDRNR3 ZUN EAGUL6
File this flight plan on PilotEdge
Remarks:
Altitude:
(Current/Filed)
30,000ft
Speed:
(Current/Filed)
115kts
Departed: 22-Nov-17 09:36 AM
Arrived: 22-Nov-17 10:39 AM
Distance/Time
Traveled:
284nm/1:03
Distance/Time
To Go:
Arrived

Flight Plot

Page will automatically refresh every two minutes.


Map Options




Map Legend


Flown Route
Filed Route
Departure Airport
Arrival Airport
Navaid (VOR, NDB)
Fix

Horizontal Profiles

Position Reports

Time Latitude Longitude Heading Altitude Ground
Speed
22-Nov-17 08:59 35.047896 -106.614753 180 5322ft 0kts
22-Nov-17 09:00 35.047896 -106.614753 180 5322ft 0kts
22-Nov-17 09:01 35.047896 -106.614753 180 5322ft 0kts
22-Nov-17 09:02 35.047896 -106.614753 180 5322ft 0kts
22-Nov-17 09:03 35.047896 -106.614753 180 5322ft 0kts
22-Nov-17 09:04 35.047896 -106.614753 180 5322ft 0kts
22-Nov-17 09:05 35.047896 -106.614753 180 5322ft 0kts
22-Nov-17 09:06 35.047896 -106.614753 180 5322ft 0kts
22-Nov-17 09:07 35.047896 -106.614753 180 5322ft 0kts
22-Nov-17 09:08 35.047896 -106.614753 180 5322ft 0kts
22-Nov-17 09:09 35.047896 -106.614753 180 5322ft 0kts
22-Nov-17 09:10 35.047896 -106.614753 180 5322ft 0kts
22-Nov-17 09:11 35.047896 -106.614753 180 5322ft 0kts
22-Nov-17 09:12 35.047896 -106.614753 180 5322ft 0kts
22-Nov-17 09:13 35.047896 -106.614753 180 5322ft 0kts
22-Nov-17 09:14 35.047896 -106.614753 180 5322ft 0kts
22-Nov-17 09:15 35.047896 -106.614753 180 5322ft 0kts
22-Nov-17 09:16 35.047896 -106.614753 180 5322ft 0kts
22-Nov-17 09:17 35.047896 -106.614753 180 5322ft 0kts
22-Nov-17 09:18 35.047896 -106.614753 180 5322ft 0kts
22-Nov-17 09:19 35.047896 -106.614753 180 5322ft 0kts
22-Nov-17 09:20 35.047896 -106.614753 180 5323ft 0kts
22-Nov-17 09:21 35.048302 -106.614615 196 5323ft 2kts
22-Nov-17 09:22 35.048716 -106.614478 180 5323ft 0kts
22-Nov-17 09:23 35.048716 -106.614478 180 5323ft 0kts
22-Nov-17 09:24 35.048716 -106.614478 180 5323ft 0kts
22-Nov-17 09:25 35.048716 -106.614478 180 5323ft 0kts
22-Nov-17 09:26 35.048716 -106.614478 180 5323ft 0kts
22-Nov-17 09:27 35.048716 -106.614478 180 5323ft 0kts
22-Nov-17 09:28 35.048716 -106.614478 180 5323ft 0kts
22-Nov-17 09:29 35.048716 -106.614478 180 5323ft 0kts
22-Nov-17 09:30 35.048716 -106.614478 180 5323ft 0kts
22-Nov-17 09:31 35.048716 -106.614478 180 5323ft 0kts
22-Nov-17 09:32 35.048716 -106.613466 102 5323ft 4kts
22-Nov-17 09:33 35.047214 -106.613072 181 5323ft 7kts
22-Nov-17 09:34 35.045547 -106.614268 266 5323ft 8kts
22-Nov-17 09:35 35.045554 -106.617381 268 5323ft 9kts
22-Nov-17 09:36 35.045581 -106.620584 271 5323ft 0kts
22-Nov-17 09:37 35.045581 -106.620584 271 5323ft 0kts
22-Nov-17 09:38 35.045581 -106.620584 271 5323ft 0kts
22-Nov-17 09:39 35.045581 -106.620585 271 5323ft 0kts
22-Nov-17 09:40 35.045286 -106.621211 204 5323ft 0kts
22-Nov-17 09:41 35.044394 -106.615051 87 5323ft 100kts
22-Nov-17 09:42 35.043477 -106.554290 85 6944ft 243kts
22-Nov-17 09:43 35.095506 -106.519452 324 8022ft 278kts
22-Nov-17 09:44 35.105650 -106.608669 263 8006ft 281kts
22-Nov-17 09:45 35.096770 -106.704056 263 9995ft 287kts
22-Nov-17 09:46 35.098182 -106.808420 281 12789ft 328kts
22-Nov-17 09:47 35.106822 -106.919974 263 16507ft 343kts
22-Nov-17 09:48 35.084003 -107.036335 261 19324ft 374kts
22-Nov-17 09:49 35.059358 -107.158539 262 21482ft 374kts
22-Nov-17 09:50 35.037300 -107.281802 272 21489ft 365kts
22-Nov-17 09:51 35.031827 -107.405966 273 22391ft 374kts
22-Nov-17 09:52 35.026163 -107.533647 274 25329ft 384kts
22-Nov-17 09:53 35.020487 -107.664160 274 28102ft 389kts
22-Nov-17 09:54 35.015431 -107.783240 274 30473ft 385kts
22-Nov-17 09:55 35.009827 -107.920874 274 30500ft 430kts
22-Nov-17 09:56 35.003755 -108.071220 274 30487ft 446kts
22-Nov-17 09:57 34.997912 -108.221442 274 30487ft 445kts
22-Nov-17 09:58 34.992231 -108.372256 274 30486ft 445kts
22-Nov-17 09:59 34.986745 -108.523052 274 30486ft 445kts
22-Nov-17 10:00 34.981648 -108.667710 274 30513ft 445kts
22-Nov-17 10:01 34.976517 -108.818381 274 30515ft 444kts
22-Nov-17 10:02 34.971574 -108.968826 274 30515ft 444kts
22-Nov-17 10:03 34.966856 -109.119110 274 30514ft 444kts
22-Nov-17 10:04 34.925248 -109.265321 252 30488ft 466kts
22-Nov-17 10:05 34.872850 -109.408003 253 30474ft 466kts
22-Nov-17 10:06 34.820273 -109.551785 253 30454ft 466kts
22-Nov-17 10:07 34.769187 -109.691176 251 27550ft 472kts
22-Nov-17 10:08 34.715257 -109.836692 251 25253ft 476kts
22-Nov-17 10:09 34.660303 -109.983521 251 24453ft 481kts
22-Nov-17 10:10 34.605916 -110.128393 250 24478ft 461kts
22-Nov-17 10:11 34.553041 -110.269901 250 24478ft 462kts
22-Nov-17 10:12 34.499974 -110.411574 249 24478ft 462kts
22-Nov-17 10:13 34.450423 -110.542180 250 24477ft 461kts
22-Nov-17 10:14 34.397923 -110.680899 249 24479ft 458kts
22-Nov-17 10:15 34.345120 -110.807553 234 24200ft 383kts
22-Nov-17 10:16 34.272051 -110.901472 232 24171ft 382kts
22-Nov-17 10:17 34.198217 -110.996827 231 21604ft 400kts
22-Nov-17 10:18 34.122065 -111.095146 230 18442ft 393kts
22-Nov-17 10:19 34.054149 -111.182017 230 18424ft 335kts
22-Nov-17 10:20 33.989709 -111.264548 230 18438ft 346kts
22-Nov-17 10:21 33.923168 -111.349723 230 17643ft 337kts
22-Nov-17 10:22 33.867674 -111.428635 239 16903ft 296kts
22-Nov-17 10:23 33.823457 -111.513113 239 16906ft 302kts
22-Nov-17 10:24 33.778563 -111.598227 238 16823ft 301kts
22-Nov-17 10:25 33.740212 -111.670175 235 14842ft 316kts
22-Nov-17 10:26 33.684037 -111.775646 234 11919ft 323kts
22-Nov-17 10:27 33.644053 -111.850890 236 10460ft 314kts
22-Nov-17 10:28 33.598690 -111.936165 238 9219ft 296kts
22-Nov-17 10:29 33.549888 -112.027740 236 7789ft 253kts
22-Nov-17 10:30 33.525675 -112.099732 269 6792ft 219kts
22-Nov-17 10:31 33.525015 -112.157800 268 6745ft 209kts
22-Nov-17 10:32 33.523123 -112.228094 268 6038ft 209kts
22-Nov-17 10:33 33.521384 -112.309132 268 3991ft 211kts
22-Nov-17 10:34 33.520171 -112.366530 268 2994ft 188kts
22-Nov-17 10:35 33.497033 -112.399672 155 3000ft 153kts
22-Nov-17 10:36 33.486713 -112.353152 90 3018ft 153kts
22-Nov-17 10:37 33.474714 -112.305578 125 2849ft 157kts
22-Nov-17 10:38 33.447284 -112.266589 123 3092ft 155kts
22-Nov-17 10:39 33.434416 -112.220778 76 3296ft 151kts
22-Nov-17 10:40 33.442641 -112.169789 92 3168ft 156kts
22-Nov-17 10:41 33.441494 -112.122500 88 2614ft 133kts
22-Nov-17 10:42 33.441270 -112.077038 90 1983ft 139kts
22-Nov-17 10:43 33.440941 -112.032240 90 1237ft 130kts
22-Nov-17 10:44 33.439914 -112.013418 133 1126ft 11kts
22-Nov-17 10:45 33.439359 -112.011334 139 1126ft 13kts
22-Nov-17 10:46 33.438459 -112.007425 186 1128ft 8kts

Navigation Log

Ident Type
Flight plan parsing failed, navigation log unavailable